sensor_id;sensor_type;location;lat;lon;timestamp;pressure;altitude;pressure_sealevel;temperature;humidity
59513;BME280;45330;51.634;5.562;2023-03-01T00:01:08;103052.38;;;-2.94;100.00
59513;BME280;45330;51.634;5.562;2023-03-01T00:03:34;103072.75;;;-2.83;100.00
59513;BME280;45330;51.634;5.562;2023-03-01T00:06:00;103067.66;;;-2.83;100.00
59513;BME280;45330;51.634;5.562;2023-03-01T00:08:26;103062.56;;;-2.83;100.00
59513;BME280;45330;51.634;5.562;2023-03-01T00:13:30;103063.59;;;-2.81;100.00
59513;BME280;45330;51.634;5.562;2023-03-01T00:15:55;103040.50;;;-2.93;100.00
59513;BME280;45330;51.634;5.562;2023-03-01T00:18:21;103043.44;;;-2.99;100.00
59513;BME280;45330;51.634;5.562;2023-03-01T00:20:54;103064.84;;;-2.86;100.00
59513;BME280;45330;51.634;5.562;2023-03-01T00:23:20;103050.06;;;-3.01;100.00
59513;BME280;45330;51.634;5.562;2023-03-01T00:25:45;103070.69;;;-2.98;100.00
59513;BME280;45330;51.634;5.562;2023-03-01T00:28:11;103058.44;;;-3.12;100.00
59513;BME280;45330;51.634;5.562;2023-03-01T00:30:36;103069.03;;;-3.07;100.00
59513;BME280;45330;51.634;5.562;2023-03-01T00:33:02;103073.50;;;-3.05;100.00
59513;BME280;45330;51.634;5.562;2023-03-01T00:35:27;103078.84;;;-3.02;100.00
59513;BME280;45330;51.634;5.562;2023-03-01T00:37:53;103075.53;;;-3.01;100.00
59513;BME280;45330;51.634;5.562;2023-03-01T00:40:18;103044.06;;;-3.12;100.00
59513;BME280;45330;51.634;5.562;2023-03-01T00:42:43;103070.94;;;-2.95;100.00
59513;BME280;45330;51.634;5.562;2023-03-01T00:45:09;103071.69;;;-2.96;100.00
59513;BME280;45330;51.634;5.562;2023-03-01T00:47:35;103065.34;;;-3.01;100.00
59513;BME280;45330;51.634;5.562;2023-03-01T00:50:00;103063.56;;;-3.02;100.00
59513;BME280;45330;51.634;5.562;2023-03-01T00:52:25;103018.16;;;-3.27;100.00
59513;BME280;45330;51.634;5.562;2023-03-01T00:54:52;103051.19;;;-3.18;100.00
59513;BME280;45330;51.634;5.562;2023-03-01T00:57:17;103015.84;;;-3.34;100.00
59513;BME280;45330;51.634;5.562;2023-03-01T00:59:43;103031.38;;;-3.31;100.00
59513;BME280;45330;51.634;5.562;2023-03-01T01:02:08;103015.84;;;-3.34;100.00
59513;BME280;45330;51.634;5.562;2023-03-01T01:04:34;103045.53;;;-3.24;100.00
59513;BME280;45330;51.634;5.562;2023-03-01T01:06:59;103046.16;;;-3.27;100.00
59513;BME280;45330;51.634;5.562;2023-03-01T01:09:24;103029.56;;;-3.42;100.00
59513;BME280;45330;51.634;5.562;2023-03-01T01:11:50;103044.53;;;-3.26;100.00
59513;BME280;45330;51.634;5.562;2023-03-01T01:14:16;103046.94;;;-3.28;100.00
59513;BME280;45330;51.634;5.562;2023-03-01T01:16:43;103039.03;;;-3.31;100.00
59513;BME280;45330;51.634;5.562;2023-03-01T01:19:10;103014.31;;;-3.42;100.00
59513;BME280;45330;51.634;5.562;2023-03-01T01:21:35;103036.34;;;-3.32;100.00
59513;BME280;45330;51.634;5.562;2023-03-01T01:24:03;103029.50;;;-3.33;100.00
59513;BME280;45330;51.634;5.562;2023-03-01T01:26:31;103019.13;;;-3.45;100.00
59513;BME280;45330;51.634;5.562;2023-03-01T01:28:57;103020.38;;;-3.50;100.00
59513;BME280;45330;51.634;5.562;2023-03-01T01:31:23;103014.41;;;-3.51;100.00
59513;BME280;45330;51.634;5.562;2023-03-01T01:33:49;103001.28;;;-3.55;100.00
59513;BME280;45330;51.634;5.562;2023-03-01T01:36:15;103008.69;;;-3.48;100.00
59513;BME280;45330;51.634;5.562;2023-03-01T01:38:41;103000.94;;;-3.50;100.00
59513;BME280;45330;51.634;5.562;2023-03-01T01:41:08;103011.38;;;-3.47;100.00
59513;BME280;45330;51.634;5.562;2023-03-01T01:43:41;102978.88;;;-3.59;100.00
59513;BME280;45330;51.634;5.562;2023-03-01T01:46:27;103001.69;;;-3.51;100.00
59513;BME280;45330;51.634;5.562;2023-03-01T01:48:57;102993.16;;;-3.51;100.00
59513;BME280;45330;51.634;5.562;2023-03-01T01:51:28;102971.34;;;-3.68;100.00
59513;BME280;45330;51.634;5.562;2023-03-01T01:54:06;102993.41;;;-3.58;100.00
59513;BME280;45330;51.634;5.562;2023-03-01T01:56:33;102995.94;;;-3.58;100.00
59513;BME280;45330;51.634;5.562;2023-03-01T01:59:01;102989.06;;;-3.59;100.00
59513;BME280;45330;51.634;5.562;2023-03-01T02:01:27;102982.94;;;-3.62;100.00
59513;BME280;45330;51.634;5.562;2023-03-01T02:03:52;102962.94;;;-3.67;100.00
59513;BME280;45330;51.634;5.562;2023-03-01T02:08:45;102974.56;;;-3.50;100.00
59513;BME280;45330;51.634;5.562;2023-03-01T02:11:12;102978.91;;;-3.49;100.00
59513;BME280;45330;51.634;5.562;2023-03-01T02:13:39;102972.03;;;-3.50;100.00
59513;BME280;45330;51.634;5.562;2023-03-01T02:16:09;102956.25;;;-3.56;100.00
59513;BME280;45330;51.634;5.562;2023-03-01T02:18:37;102953.81;;;-3.65;100.00
59513;BME280;45330;51.634;5.562;2023-03-01T02:21:43;102974.31;;;-3.53;100.00
59513;BME280;45330;51.634;5.562;2023-03-01T02:24:08;102982.13;;;-3.41;100.00
59513;BME280;45330;51.634;5.562;2023-03-01T02:26:45;102977.53;;;-3.35;100.00
59513;BME280;45330;51.634;5.562;2023-03-01T02:29:11;102975.13;;;-3.34;100.00
59513;BME280;45330;51.634;5.562;2023-03-01T02:31:37;102964.19;;;-3.33;100.00
59513;BME280;45330;51.634;5.562;2023-03-01T02:34:09;102976.66;;;-3.36;100.00
59513;BME280;45330;51.634;5.562;2023-03-01T02:36:39;102937.19;;;-3.51;100.00
59513;BME280;45330;51.634;5.562;2023-03-01T02:39:07;102973.88;;;-3.39;100.00
59513;BME280;45330;51.634;5.562;2023-03-01T02:41:39;102951.03;;;-3.48;100.00
59513;BME280;45330;51.634;5.562;2023-03-01T02:44:06;102967.09;;;-3.38;100.00
59513;BME280;45330;51.634;5.562;2023-03-01T02:46:31;102970.41;;;-3.39;100.00
59513;BME280;45330;51.634;5.562;2023-03-01T02:48:58;102970.91;;;-3.43;100.00
59513;BME280;45330;51.634;5.562;2023-03-01T02:54:24;102974.06;;;-3.46;100.00
59513;BME280;45330;51.634;5.562;2023-03-01T02:56:52;102964.00;;;-3.55;100.00
59513;BME280;45330;51.634;5.562;2023-03-01T02:59:21;102972.56;;;-3.54;100.00
59513;BME280;45330;51.634;5.562;2023-03-01T03:01:47;102946.31;;;-3.64;100.00
59513;BME280;45330;51.634;5.562;2023-03-01T03:04:16;102939.28;;;-3.66;100.00
59513;BME280;45330;51.634;5.562;2023-03-01T03:06:47;102934.69;;;-3.70;100.00
59513;BME280;45330;51.634;5.562;2023-03-01T03:09:13;102950.88;;;-3.70;100.00
59513;BME280;45330;51.634;5.562;2023-03-01T03:11:38;102979.00;;;-3.58;100.00
59513;BME280;45330;51.634;5.562;2023-03-01T03:14:06;102947.53;;;-3.79;100.00
59513;BME280;45330;51.634;5.562;2023-03-01T03:16:48;102936.28;;;-3.91;100.00
59513;BME280;45330;51.634;5.562;2023-03-01T03:19:15;102952.09;;;-3.85;100.00
59513;BME280;45330;51.634;5.562;2023-03-01T03:21:41;102958.31;;;-3.82;100.00
59513;BME280;45330;51.634;5.562;2023-03-01T03:24:07;102942.69;;;-3.86;100.00
59513;BME280;45330;51.634;5.562;2023-03-01T03:26:33;102961.06;;;-3.70;100.00
59513;BME280;45330;51.634;5.562;2023-03-01T03:28:58;102944.47;;;-3.85;100.00
59513;BME280;45330;51.634;5.562;2023-03-01T03:31:24;102962.31;;;-3.75;100.00
59513;BME280;45330;51.634;5.562;2023-03-01T03:33:49;102965.34;;;-3.79;100.00
59513;BME280;45330;51.634;5.562;2023-03-01T03:36:20;102963.91;;;-3.86;100.00
59513;BME280;45330;51.634;5.562;2023-03-01T03:38:46;102969.59;;;-3.88;100.00
59513;BME280;45330;51.634;5.562;2023-03-01T03:41:12;102946.03;;;-4.06;100.00
59513;BME280;45330;51.634;5.562;2023-03-01T03:43:39;102963.88;;;-3.96;100.00
59513;BME280;45330;51.634;5.562;2023-03-01T03:46:06;102967.91;;;-3.98;100.00
59513;BME280;45330;51.634;5.562;2023-03-01T03:48:50;102963.19;;;-4.04;100.00
59513;BME280;45330;51.634;5.562;2023-03-01T03:51:17;102961.81;;;-4.00;100.00
59513;BME280;45330;51.634;5.562;2023-03-01T03:53:43;102952.34;;;-4.11;100.00
59513;BME280;45330;51.634;5.562;2023-03-01T03:56:09;102931.06;;;-4.22;100.00
59513;BME280;45330;51.634;5.562;2023-03-01T03:58:35;102959.25;;;-4.10;100.00
59513;BME280;45330;51.634;5.562;2023-03-01T04:01:00;102935.28;;;-4.23;100.00
59513;BME280;45330;51.634;5.562;2023-03-01T04:03:27;102952.84;;;-4.16;100.00
59513;BME280;45330;51.634;5.562;2023-03-01T04:05:53;102941.09;;;-4.24;100.00
59513;BME280;45330;51.634;5.562;2023-03-01T04:08:20;102919.34;;;-4.31;100.00
59513;BME280;45330;51.634;5.562;2023-03-01T04:10:48;102918.06;;;-4.36;100.00
59513;BME280;45330;51.634;5.562;2023-03-01T04:13:16;102941.09;;;-4.24;100.00
59513;BME280;45330;51.634;5.562;2023-03-01T04:15:45;102933.75;;;-4.21;100.00
59513;BME280;45330;51.634;5.562;2023-03-01T04:18:14;102902.38;;;-4.40;100.00
59513;BME280;45330;51.634;5.562;2023-03-01T04:20:41;102912.34;;;-4.33;100.00
59513;BME280;45330;51.634;5.562;2023-03-01T04:23:15;102923.41;;;-4.33;100.00
59513;BME280;45330;51.634;5.562;2023-03-01T04:25:55;102931.44;;;-4.28;100.00
59513;BME280;45330;51.634;5.562;2023-03-01T04:28:27;102932.03;;;-4.31;100.00
59513;BME280;45330;51.634;5.562;2023-03-01T04:30:55;102903.53;;;-4.47;100.00
59513;BME280;45330;51.634;5.562;2023-03-01T04:33:21;102925.81;;;-4.34;100.00
59513;BME280;45330;51.634;5.562;2023-03-01T04:35:46;102891.66;;;-4.57;100.00
59513;BME280;45330;51.634;5.562;2023-03-01T04:38:15;102903.09;;;-4.52;100.00
59513;BME280;45330;51.634;5.562;2023-03-01T04:40:40;102892.25;;;-4.59;100.00
59513;BME280;45330;51.634;5.562;2023-03-01T04:43:09;102897.88;;;-4.53;100.00
59513;BME280;45330;51.634;5.562;2023-03-01T04:45:34;102891.16;;;-4.53;100.00
59513;BME280;45330;51.634;5.562;2023-03-01T04:48:00;102890.69;;;-4.49;100.00
59513;BME280;45330;51.634;5.562;2023-03-01T04:50:26;102883.69;;;-4.51;100.00
59513;BME280;45330;51.634;5.562;2023-03-01T04:52:51;102916.13;;;-4.38;100.00
59513;BME280;45330;51.634;5.562;2023-03-01T04:55:17;102895.59;;;-4.50;100.00
59513;BME280;45330;51.634;5.562;2023-03-01T04:57:43;102916.63;;;-4.42;100.00
59513;BME280;45330;51.634;5.562;2023-03-01T05:00:11;102918.06;;;-4.36;100.00
59513;BME280;45330;51.634;5.562;2023-03-01T05:05:27;102909.75;;;-4.43;100.00
59513;BME280;45330;51.634;5.562;2023-03-01T05:07:54;102904.25;;;-4.48;100.00
59513;BME280;45330;51.634;5.562;2023-03-01T05:10:20;102905.84;;;-4.40;100.00
59513;BME280;45330;51.634;5.562;2023-03-01T05:12:46;102873.38;;;-4.53;100.00
59513;BME280;45330;51.634;5.562;2023-03-01T05:15:12;102897.31;;;-4.40;100.00
59513;BME280;45330;51.634;5.562;2023-03-01T05:17:37;102876.19;;;-4.50;100.00
59513;BME280;45330;51.634;5.562;2023-03-01T05:20:03;102876.94;;;-4.51;100.00
59513;BME280;45330;51.634;5.562;2023-03-01T05:22:33;102896.03;;;-4.45;100.00
59513;BME280;45330;51.634;5.562;2023-03-01T05:24:58;102861.38;;;-4.64;100.00
59513;BME280;45330;51.634;5.562;2023-03-01T05:27:24;102861.50;;;-4.62;100.00
59513;BME280;45330;51.634;5.562;2023-03-01T05:29:49;102887.44;;;-4.56;100.00
59513;BME280;45330;51.634;5.562;2023-03-01T05:32:14;102880.66;;;-4.66;100.00
59513;BME280;45330;51.634;5.562;2023-03-01T05:34:41;102852.09;;;-4.83;100.00
59513;BME280;45330;51.634;5.562;2023-03-01T05:37:06;102862.97;;;-4.75;100.00
59513;BME280;45330;51.634;5.562;2023-03-01T05:39:33;102858.00;;;-4.73;100.00
59513;BME280;45330;51.634;5.562;2023-03-01T05:42:00;102872.03;;;-4.68;100.00
59513;BME280;45330;51.634;5.562;2023-03-01T05:44:28;102861.31;;;-4.74;100.00
59513;BME280;45330;51.634;5.562;2023-03-01T05:46:54;102853.56;;;-4.76;100.00
59513;BME280;45330;51.634;5.562;2023-03-01T05:49:20;102850.88;;;-4.77;100.00
59513;BME280;45330;51.634;5.562;2023-03-01T05:51:50;102863.22;;;-4.72;100.00
59513;BME280;45330;51.634;5.562;2023-03-01T05:54:17;102836.06;;;-4.92;100.00
59513;BME280;45330;51.634;5.562;2023-03-01T05:56:43;102787.03;;;-5.20;100.00
59513;BME280;45330;51.634;5.562;2023-03-01T05:59:08;102829.91;;;-5.04;100.00
59513;BME280;45330;51.634;5.562;2023-03-01T06:01:35;102862.91;;;-4.85;100.00
59513;BME280;45330;51.634;5.562;2023-03-01T06:04:00;102865.59;;;-4.84;100.00
59513;BME280;45330;51.634;5.562;2023-03-01T06:06:26;102876.00;;;-4.80;100.00
59513;BME280;45330;51.634;5.562;2023-03-01T06:08:52;102872.03;;;-4.87;100.00
59513;BME280;45330;51.634;5.562;2023-03-01T06:11:17;102842.19;;;-5.09;100.00
59513;BME280;45330;51.634;5.562;2023-03-01T06:13:44;102841.41;;;-5.08;100.00
59513;BME280;45330;51.634;5.562;2023-03-01T06:16:09;102867.16;;;-4.94;100.00
59513;BME280;45330;51.634;5.562;2023-03-01T06:18:36;102850.53;;;-5.10;100.00
59513;BME280;45330;51.634;5.562;2023-03-01T06:21:02;102865.44;;;-5.04;100.00
59513;BME280;45330;51.634;5.562;2023-03-01T06:23:27;102848.28;;;-5.07;100.00
59513;BME280;45330;51.634;5.562;2023-03-01T06:25:53;102865.63;;;-4.92;100.00
59513;BME280;45330;51.634;5.562;2023-03-01T06:28:18;102840.66;;;-5.07;100.00
59513;BME280;45330;51.634;5.562;2023-03-01T06:30:44;102864.88;;;-4.91;100.00
59513;BME280;45330;51.634;5.562;2023-03-01T06:33:09;102793.81;;;-5.29;100.00
59513;BME280;45330;51.634;5.562;2023-03-01T06:35:35;102876.00;;;-4.80;100.00
59513;BME280;45330;51.634;5.562;2023-03-01T06:38:02;102842.28;;;-4.88;100.00
59513;BME280;45330;51.634;5.562;2023-03-01T06:40:28;102846.16;;;-4.83;100.00
59513;BME280;45330;51.634;5.562;2023-03-01T06:42:54;102869.75;;;-4.65;100.00
59513;BME280;45330;51.634;5.562;2023-03-01T06:45:20;102846.06;;;-4.74;100.00
59513;BME280;45330;51.634;5.562;2023-03-01T06:47:46;102857.19;;;-4.63;100.00
59513;BME280;45330;51.634;5.562;2023-03-01T06:50:12;102844.69;;;-4.71;100.00
59513;BME280;45330;51.634;5.562;2023-03-01T06:52:38;102865.81;;;-4.61;100.00
59513;BME280;45330;51.634;5.562;2023-03-01T06:55:04;102875.56;;;-4.47;100.00
59513;BME280;45330;51.634;5.562;2023-03-01T06:57:30;102841.97;;;-4.53;100.00
59513;BME280;45330;51.634;5.562;2023-03-01T06:59:55;102853.34;;;-4.39;100.00
59513;BME280;45330;51.634;5.562;2023-03-01T07:02:21;102839.53;;;-4.33;100.00
59513;BME280;45330;51.634;5.562;2023-03-01T07:04:49;102844.88;;;-4.29;100.00
59513;BME280;45330;51.634;5.562;2023-03-01T07:07:14;102843.50;;;-4.26;100.00
59513;BME280;45330;51.634;5.562;2023-03-01T07:09:39;102856.50;;;-4.13;100.00
59513;BME280;45330;51.634;5.562;2023-03-01T07:12:05;102855.16;;;-3.99;100.00
59513;BME280;45330;51.634;5.562;2023-03-01T07:14:30;102840.13;;;-4.06;100.00
59513;BME280;45330;51.634;5.562;2023-03-01T07:16:56;102830.09;;;-3.94;100.00
59513;BME280;45330;51.634;5.562;2023-03-01T07:19:22;102857.88;;;-3.66;100.00
59513;BME280;45330;51.634;5.562;2023-03-01T07:21:47;102838.03;;;-3.70;100.00
59513;BME280;45330;51.634;5.562;2023-03-01T07:24:13;102843.00;;;-3.62;100.00
59513;BME280;45330;51.634;5.562;2023-03-01T07:26:38;102851.16;;;-3.55;100.00
59513;BME280;45330;51.634;5.562;2023-03-01T07:29:05;102842.59;;;-3.56;100.00
59513;BME280;45330;51.634;5.562;2023-03-01T07:31:31;102836.63;;;-3.56;100.00
59513;BME280;45330;51.634;5.562;2023-03-01T07:33:57;102875.72;;;-3.35;100.00
59513;BME280;45330;51.634;5.562;2023-03-01T07:36:23;102867.94;;;-3.27;100.00
59513;BME280;45330;51.634;5.562;2023-03-01T07:38:48;102873.81;;;-3.17;100.00
59513;BME280;45330;51.634;5.562;2023-03-01T07:41:14;102868.19;;;-3.03;100.00
59513;BME280;45330;51.634;5.562;2023-03-01T07:43:39;102874.56;;;-2.98;100.00
59513;BME280;45330;51.634;5.562;2023-03-01T07:46:05;102886.00;;;-2.93;100.00
59513;BME280;45330;51.634;5.562;2023-03-01T07:48:32;102863.34;;;-3.00;100.00
59513;BME280;45330;51.634;5.562;2023-03-01T07:51:01;102861.69;;;-2.89;100.00
59513;BME280;45330;51.634;5.562;2023-03-01T07:53:27;102869.06;;;-2.71;100.00
59513;BME280;45330;51.634;5.562;2023-03-01T07:56:03;102864.91;;;-2.59;100.00
59513;BME280;45330;51.634;5.562;2023-03-01T07:58:29;102868.31;;;-2.48;100.00
59513;BME280;45330;51.634;5.562;2023-03-01T08:00:54;102868.28;;;-2.38;100.00
59513;BME280;45330;51.634;5.562;2023-03-01T08:03:20;102866.59;;;-2.27;100.00
59513;BME280;45330;51.634;5.562;2023-03-01T08:05:45;102847.16;;;-2.15;100.00
59513;BME280;45330;51.634;5.562;2023-03-01T08:08:11;102851.09;;;-2.08;100.00
59513;BME280;45330;51.634;5.562;2023-03-01T08:10:36;102867.28;;;-1.85;100.00
59513;BME280;45330;51.634;5.562;2023-03-01T08:13:02;102847.44;;;-1.78;100.00
59513;BME280;45330;51.634;5.562;2023-03-01T08:15:27;102859.13;;;-1.69;100.00
59513;BME280;45330;51.634;5.562;2023-03-01T08:17:52;102883.19;;;-1.44;100.00
59513;BME280;45330;51.634;5.562;2023-03-01T08:20:18;102876.56;;;-1.30;100.00
59513;BME280;45330;51.634;5.562;2023-03-01T08:22:44;102888.41;;;-1.08;100.00
59513;BME280;45330;51.634;5.562;2023-03-01T08:25:09;102855.88;;;-1.11;100.00
59513;BME280;45330;51.634;5.562;2023-03-01T08:27:34;102876.44;;;-0.85;100.00
59513;BME280;45330;51.634;5.562;2023-03-01T08:30:00;102861.34;;;-0.82;100.00
59513;BME280;45330;51.634;5.562;2023-03-01T08:32:25;102869.78;;;-0.72;100.00
59513;BME280;45330;51.634;5.562;2023-03-01T08:34:51;102877.03;;;-0.66;100.00
59513;BME280;45330;51.634;5.562;2023-03-01T08:37:16;102840.66;;;-0.74;100.00
59513;BME280;45330;51.634;5.562;2023-03-01T08:39:41;102868.66;;;-0.52;100.00
59513;BME280;45330;51.634;5.562;2023-03-01T08:42:07;102865.00;;;-0.43;100.00
59513;BME280;45330;51.634;5.562;2023-03-01T08:44:32;102855.19;;;-0.37;100.00
59513;BME280;45330;51.634;5.562;2023-03-01T08:46:58;102856.06;;;-0.25;100.00
59513;BME280;45330;51.634;5.562;2023-03-01T08:49:25;102839.50;;;-0.18;100.00
59513;BME280;45330;51.634;5.562;2023-03-01T08:51:50;102845.91;;;-0.11;100.00
59513;BME280;45330;51.634;5.562;2023-03-01T08:54:19;102816.78;;;-0.13;100.00
59513;BME280;45330;51.634;5.562;2023-03-01T08:56:45;102831.47;;;0.14;100.00
59513;BME280;45330;51.634;5.562;2023-03-01T08:59:12;102824.88;;;0.18;100.00
59513;BME280;45330;51.634;5.562;2023-03-01T09:01:37;102820.19;;;0.24;100.00
59513;BME280;45330;51.634;5.562;2023-03-01T09:04:04;102824.03;;;0.31;100.00
59513;BME280;45330;51.634;5.562;2023-03-01T09:06:33;102835.66;;;0.51;100.00
59513;BME280;45330;51.634;5.562;2023-03-01T09:08:59;102816.31;;;0.43;100.00
59513;BME280;45330;51.634;5.562;2023-03-01T09:11:24;102841.38;;;0.60;100.00
59513;BME280;45330;51.634;5.562;2023-03-01T09:13:50;102835.66;;;0.64;100.00
59513;BME280;45330;51.634;5.562;2023-03-01T09:16:18;102823.06;;;0.67;100.00
59513;BME280;45330;51.634;5.562;2023-03-01T09:18:44;102832.09;;;0.88;100.00
59513;BME280;45330;51.634;5.562;2023-03-01T09:21:15;102798.72;;;0.74;100.00
59513;BME280;45330;51.634;5.562;2023-03-01T09:23:43;102822.41;;;0.97;100.00
59513;BME280;45330;51.634;5.562;2023-03-01T09:26:15;102806.25;;;0.98;100.00
59513;BME280;45330;51.634;5.562;2023-03-01T09:28:42;102814.63;;;1.22;100.00
59513;BME280;45330;51.634;5.562;2023-03-01T09:31:09;102792.88;;;1.15;100.00
59513;BME280;45330;51.634;5.562;2023-03-01T09:33:34;102810.56;;;1.39;100.00
59513;BME280;45330;51.634;5.562;2023-03-01T09:36:02;102795.91;;;1.36;100.00
59513;BME280;45330;51.634;5.562;2023-03-01T09:38:28;102791.81;;;1.53;100.00
59513;BME280;45330;51.634;5.562;2023-03-01T09:40:53;102796.25;;;1.56;97.22
59513;BME280;45330;51.634;5.562;2023-03-01T09:43:43;102786.69;;;1.53;90.71
59513;BME280;45330;51.634;5.562;2023-03-01T09:46:11;102795.03;;;1.64;89.48
59513;BME280;45330;51.634;5.562;2023-03-01T09:48:50;102786.91;;;1.71;82.59
59513;BME280;45330;51.634;5.562;2023-03-01T09:51:30;102794.59;;;1.85;83.45
59513;BME280;45330;51.634;5.562;2023-03-01T09:53:56;102780.88;;;1.84;81.78
59513;BME280;45330;51.634;5.562;2023-03-01T09:56:33;102788.25;;;1.93;80.88
59513;BME280;45330;51.634;5.562;2023-03-01T09:59:16;102793.53;;;2.10;76.67
59513;BME280;45330;51.634;5.562;2023-03-01T10:04:50;102800.59;;;2.14;74.54
59513;BME280;45330;51.634;5.562;2023-03-01T10:10:07;102782.09;;;2.04;74.32
59513;BME280;45330;51.634;5.562;2023-03-01T10:12:37;102747.69;;;1.87;74.45
59513;BME280;45330;51.634;5.562;2023-03-01T10:15:14;102770.13;;;2.05;78.08
59513;BME280;45330;51.634;5.562;2023-03-01T10:17:49;102740.13;;;2.04;78.05
59513;BME280;45330;51.634;5.562;2023-03-01T10:20:23;102760.94;;;2.23;76.03
59513;BME280;45330;51.634;5.562;2023-03-01T10:22:49;102762.28;;;2.32;72.89
59513;BME280;45330;51.634;5.562;2023-03-01T10:28:01;102727.53;;;2.23;74.93
59513;BME280;45330;51.634;5.562;2023-03-01T10:30:38;102720.84;;;2.26;75.11
59513;BME280;45330;51.634;5.562;2023-03-01T10:33:15;102744.06;;;2.42;73.02
59513;BME280;45330;51.634;5.562;2023-03-01T10:35:42;102741.66;;;2.45;73.08
59513;BME280;45330;51.634;5.562;2023-03-01T10:38:09;102744.75;;;2.54;72.86
59513;BME280;45330;51.634;5.562;2023-03-01T10:40:36;102740.84;;;2.61;70.02
59513;BME280;45330;51.634;5.562;2023-03-01T10:43:03;102729.25;;;2.68;69.16
59513;BME280;45330;51.634;5.562;2023-03-01T10:50:35;102743.03;;;2.85;67.87
59513;BME280;45330;51.634;5.562;2023-03-01T10:53:03;102742.72;;;2.79;66.29
59513;BME280;45330;51.634;5.562;2023-03-01T10:55:39;102711.94;;;2.65;66.72
59513;BME280;45330;51.634;5.562;2023-03-01T11:00:53;102742.25;;;2.86;68.16
59513;BME280;45330;51.634;5.562;2023-03-01T11:03:38;102738.84;;;2.87;65.16
59513;BME280;45330;51.634;5.562;2023-03-01T11:08:43;102726.78;;;3.01;64.44
59513;BME280;45330;51.634;5.562;2023-03-01T11:13:35;102708.97;;;3.04;64.52
59513;BME280;45330;51.634;5.562;2023-03-01T11:16:07;102730.63;;;3.24;64.18
59513;BME280;45330;51.634;5.562;2023-03-01T11:18:35;102706.25;;;3.17;63.85
59513;BME280;45330;51.634;5.562;2023-03-01T11:21:01;102720.16;;;3.21;63.00
59513;BME280;45330;51.634;5.562;2023-03-01T11:23:29;102709.44;;;3.13;62.51
59513;BME280;45330;51.634;5.562;2023-03-01T11:26:00;102719.78;;;3.30;62.70
59513;BME280;45330;51.634;5.562;2023-03-01T11:28:28;102720.25;;;3.39;62.31
59513;BME280;45330;51.634;5.562;2023-03-01T11:31:05;102720.59;;;3.45;61.30
59513;BME280;45330;51.634;5.562;2023-03-01T11:36:32;102711.44;;;3.50;61.16
59513;BME280;45330;51.634;5.562;2023-03-01T11:39:39;102702.09;;;3.52;61.58
59513;BME280;45330;51.634;5.562;2023-03-01T11:42:26;102714.34;;;3.56;60.56
59513;BME280;45330;51.634;5.562;2023-03-01T11:44:55;102703.97;;;3.55;60.51
59513;BME280;45330;51.634;5.562;2023-03-01T11:50:44;102712.06;;;3.63;60.82
59513;BME280;45330;51.634;5.562;2023-03-01T11:56:01;102693.81;;;3.58;60.92
59513;BME280;45330;51.634;5.562;2023-03-01T11:58:59;102709.91;;;3.70;60.38
59513;BME280;45330;51.634;5.562;2023-03-01T12:04:35;102671.72;;;3.62;59.30
59513;BME280;45330;51.634;5.562;2023-03-01T12:07:21;102694.06;;;3.79;59.60
59513;BME280;45330;51.634;5.562;2023-03-01T12:10:21;102689.06;;;3.82;60.84
59513;BME280;45330;51.634;5.562;2023-03-01T12:18:04;102678.44;;;4.10;59.01
59513;BME280;45330;51.634;5.562;2023-03-01T12:23:50;102679.22;;;4.08;58.95
59513;BME280;45330;51.634;5.562;2023-03-01T12:37:24;102662.00;;;4.25;60.30
59513;BME280;45330;51.634;5.562;2023-03-01T12:45:26;102651.41;;;4.37;58.98
59513;BME280;45330;51.634;5.562;2023-03-01T12:50:53;102654.78;;;4.36;57.58
59513;BME280;45330;51.634;5.562;2023-03-01T12:55:48;102627.41;;;4.38;58.74
59513;BME280;45330;51.634;5.562;2023-03-01T12:58:29;102657.03;;;4.46;57.53
59513;BME280;45330;51.634;5.562;2023-03-01T13:06:34;102631.22;;;4.64;57.65
59513;BME280;45330;51.634;5.562;2023-03-01T13:11:29;102607.44;;;4.52;55.22
59513;BME280;45330;51.634;5.562;2023-03-01T13:16:52;102584.97;;;4.49;56.98
59513;BME280;45330;51.634;5.562;2023-03-01T13:19:18;102592.41;;;4.61;55.61
59513;BME280;45330;51.634;5.562;2023-03-01T13:21:46;102594.09;;;4.60;54.88
59513;BME280;45330;51.634;5.562;2023-03-01T13:27:10;102596.69;;;4.60;54.66
59513;BME280;45330;51.634;5.562;2023-03-01T13:29:56;102596.00;;;4.64;55.76
59513;BME280;45330;51.634;5.562;2023-03-01T13:37:37;102577.91;;;4.63;55.70
59513;BME280;45330;51.634;5.562;2023-03-01T13:42:53;102571.59;;;4.76;54.58
59513;BME280;45330;51.634;5.562;2023-03-01T13:47:48;102556.25;;;4.79;54.47
59513;BME280;45330;51.634;5.562;2023-03-01T13:50:20;102548.78;;;4.85;54.54
59513;BME280;45330;51.634;5.562;2023-03-01T13:52:50;102537.47;;;4.81;54.88
59513;BME280;45330;51.634;5.562;2023-03-01T13:55:23;102544.19;;;4.97;55.21
59513;BME280;45330;51.634;5.562;2023-03-01T13:58:01;102525.81;;;4.90;55.22
59513;BME280;45330;51.634;5.562;2023-03-01T14:00:39;102531.41;;;5.01;54.45
59513;BME280;45330;51.634;5.562;2023-03-01T14:03:17;102518.94;;;4.90;54.09
59513;BME280;45330;51.634;5.562;2023-03-01T14:06:06;102505.91;;;4.87;54.65
59513;BME280;45330;51.634;5.562;2023-03-01T14:08:35;102513.34;;;5.01;55.76
59513;BME280;45330;51.634;5.562;2023-03-01T14:14:10;102524.75;;;5.06;53.60
59513;BME280;45330;51.634;5.562;2023-03-01T14:17:05;102519.47;;;5.03;53.51
59513;BME280;45330;51.634;5.562;2023-03-01T14:19:33;102511.63;;;5.00;53.76
59513;BME280;45330;51.634;5.562;2023-03-01T14:22:19;102514.44;;;5.06;54.08
59513;BME280;45330;51.634;5.562;2023-03-01T14:27:51;102513.75;;;5.10;53.18
59513;BME280;45330;51.634;5.562;2023-03-01T14:30:23;102516.09;;;5.04;53.78
59513;BME280;45330;51.634;5.562;2023-03-01T14:33:03;102510.03;;;5.03;54.42
59513;BME280;45330;51.634;5.562;2023-03-01T14:35:34;102505.84;;;5.05;54.61
59513;BME280;45330;51.634;5.562;2023-03-01T14:38:00;102509.47;;;5.10;54.68